Alcova, WY

9:46 PM MDT on July 31, 2014 (GMT -0600)
The Estates (KWYALCOV2) Elev 5489 ft | 42.53 °N, 106.78 °W | Change Station

Current weather conditions updated 1 second ago

Clear
Clear
72.5 °F
Feels Like 77 °F
N
8.0
Wind Variable Wind from SE
Gusts 14.0 mph

Tomorrow is forecast to be nearly the same temperature as today.

Today
High -- | Low -- °F
--% Chance of Precip.
Yesterday
High -- | Low -- °F
Precip. -- in
5:58 AM 8:28 PM
Waxing Crescent, 23% visible
Pressure 30.00 in
Visibility 10.0 miles
Clouds Clear
Heat Index 77 °F
Dew Point 45 °F
Humidity 37%
Rainfall 0.00 in
Snow Depth Not available.
UV 0 out of 12
Pollen 6.20 out of 12
Air Quality Not available.
Flu Activity Not available.
METAR KCPR 010253Z AUTO 11007KT 10SM CLR 23/M02 A3019 RMK AO2 SLP159 T02281017 53001

More Conditions Fewer Conditions

Pressure 30.00 in
Visibility 10.0 miles
Clouds Clear
Heat Index 77 °F
Dew Point 45 °F
Humidity 37%
Rainfall 0.00 in
Snow Depth Not available.
UV 0 out of 12
Pollen 6.20 out of 12
Air Quality Not available.
Flu Activity Not available.
METAR KCPR 010253Z AUTO 11007KT 10SM CLR 23/M02 A3019 RMK AO2 SLP159 T02281017 53001

More Conditions Fewer Conditions

10-Day Weather Forecast

Almanac

Astronomy

Jul. 31, 2014 Rise Set
Actual Time 5:58 AM MDT 8:28 PM MDT
Civil Twilight 5:26 AM MDT 9:00 PM MDT
Nautical Twilight 4:46 AM MDT 9:40 PM MDT
Astronomical Twilight 4:02 AM MDT 10:24 PM MDT
Moon 10:35 AM MDT (7/31) 10:35 PM MDT (7/31)
Length of Visible Light 15h 33m
Length of Day
14h 29m
Tomorrow will be 2m 10s shorter.
Waxing Crescent, 23% of the Moon is Illuminated
Today
Waxing Crescent
Aug 3
First Quarter
Aug 10
Full
Aug 17
Last Quarter
Aug 25
New

Today's Extremes

State Highs State Lows

Community

WunderPhotos

Upload Photos

1,739,504 photos uploaded!

Nearby

Snow Depth

Station Depth Elevation
Casper Mountain 0 in 7850 ft
Cinnabar Park 0 in 9690 ft
Sandstone R.S. 10 in 8150 ft
Crow Creek 7 in 8330 ft
Big Sandy Opening 1 in 9080 ft

Earthquake Activity

City Distance Mag. Time & Date
No recent earthquake activity has been reported nearby.
Minimum magnitude displayed is 2.5.

Coastal Water Temperatures

Place Temperature
No Stations Reporting

Nearby Weather Stations

Station Location Temp. Heat Index Dew Point Humidity Wind Precip. Elev Updated Type
HADS PATHFINDER DAM WEATHER STATION N WY, Alcova, WY 73 °F 71 °F - - NNE  at  9 mph 0.00 in / hr 5856 ft 8:30 PM MDT MADIS
The Estates, Alcova, WY 72.5 °F 77 °F 45 °F 37% SE  at  8.0 mph 0.00 in / hr 5489 ft 9:46 PM MDT Rapid Fire
HADS SWEETWATER RIVER NEAR ALCOVA 25W WY, Alcova, WY 69 °F - - - North  at  - 0.00 in / hr 5918 ft 8:45 PM MDT MADIS

Show More Stations Show Fewer Stations